createdAt,value
2018-05-27T00:01:18.784Z,21.84
2018-05-27T00:06:12.092Z,21.66
2018-05-27T00:11:06.162Z,21.42
2018-05-27T00:15:59.509Z,21.55
2018-05-27T00:20:52.826Z,21.37
2018-05-27T00:25:46.151Z,21.02
2018-05-27T00:30:39.433Z,21.21
2018-05-27T00:35:32.763Z,21.18
2018-05-27T00:40:26.837Z,21.28
2018-05-27T00:45:20.138Z,21.29
2018-05-27T00:50:14.223Z,21.28
2018-05-27T00:55:07.525Z,21.20
2018-05-27T01:00:00.851Z,21.05
2018-05-27T01:04:54.169Z,20.94
2018-05-27T01:09:48.238Z,20.90
2018-05-27T01:14:41.552Z,20.78
2018-05-27T01:19:34.867Z,20.77
2018-05-27T01:24:28.166Z,20.87
2018-05-27T01:29:21.460Z,20.77
2018-05-27T01:34:14.785Z,20.70
2018-05-27T01:39:08.103Z,20.71
2018-05-27T01:44:01.407Z,20.80
2018-05-27T01:48:54.717Z,20.73
2018-05-27T01:53:48.046Z,20.74
2018-05-27T01:58:41.388Z,20.70
2018-05-27T02:03:34.677Z,20.77
2018-05-27T02:08:27.996Z,20.72
2018-05-27T02:13:21.308Z,20.52
2018-05-27T02:18:14.612Z,20.38
2018-05-27T02:23:07.919Z,20.33
2018-05-27T02:28:02.002Z,20.51
2018-05-27T02:32:55.317Z,20.37
2018-05-27T02:37:49.391Z,20.15
2018-05-27T02:42:43.805Z,20.31
2018-05-27T02:47:37.113Z,20.39
2018-05-27T02:52:30.612Z,20.27
2018-05-27T02:57:23.923Z,20.22
2018-05-27T03:02:17.990Z,20.32
2018-05-27T03:07:11.324Z,20.31
2018-05-27T03:12:04.676Z,20.46
2018-05-27T03:16:57.981Z,20.46
2018-05-27T03:21:51.819Z,20.33
2018-05-27T03:26:45.169Z,20.05
2018-05-27T03:31:38.558Z,20.07
2018-05-27T03:36:31.968Z,19.99
2018-05-27T03:41:25.303Z,19.91
2018-05-27T03:46:19.371Z,19.97
2018-05-27T03:51:12.673Z,20.11
2018-05-27T03:56:06.756Z,20.13
2018-05-27T04:01:00.051Z,20.16
2018-05-27T04:06:11.054Z,20.30
2018-05-27T04:11:04.362Z,20.36
2018-05-27T04:15:57.672Z,20.18
2018-05-27T04:20:50.973Z,20.06
2018-05-27T04:25:44.276Z,19.92
2018-05-27T04:30:37.584Z,20.04
2018-05-27T04:35:30.888Z,20.11
2018-05-27T04:40:24.195Z,20.11
2018-05-27T04:45:17.499Z,20.18
2018-05-27T04:50:10.804Z,20.13
2018-05-27T04:55:04.204Z,20.19
2018-05-27T04:59:57.518Z,20.38
2018-05-27T05:04:50.810Z,20.38
2018-05-27T05:09:44.120Z,20.38
2018-05-27T05:14:37.444Z,20.44
2018-05-27T05:19:30.748Z,20.54
2018-05-27T05:24:24.834Z,20.92
2018-05-27T05:29:18.138Z,21.10
2018-05-27T05:34:11.444Z,21.18
2018-05-27T05:39:05.365Z,21.31
2018-05-27T05:43:58.660Z,21.66
2018-05-27T05:48:51.923Z,21.88
2018-05-27T05:53:45.256Z,22.02
2018-05-27T05:58:38.527Z,22.23
2018-05-27T06:03:31.830Z,22.15
2018-05-27T06:08:25.151Z,22.03
2018-05-27T06:13:18.542Z,22.41
2018-05-27T06:18:12.603Z,22.39
2018-05-27T06:23:05.923Z,22.33
2018-05-27T06:27:59.296Z,22.48
2018-05-27T06:32:52.903Z,22.65
2018-05-27T06:37:46.203Z,22.50
2018-05-27T06:42:39.593Z,22.53
2018-05-27T06:47:32.942Z,22.62
2018-05-27T06:52:26.312Z,22.76
2018-05-27T06:57:19.620Z,22.80
2018-05-27T07:02:12.991Z,23.05
2018-05-27T07:07:06.294Z,23.01
2018-05-27T07:11:59.596Z,23.06
2018-05-27T07:16:58.146Z,23.04
2018-05-27T07:21:51.479Z,23.22
2018-05-27T07:26:46.643Z,23.24
2018-05-27T07:31:39.975Z,23.35
2018-05-27T07:36:34.051Z,23.64
2018-05-27T07:41:27.355Z,23.43
2018-05-27T07:46:20.681Z,23.66
2018-05-27T07:51:14.002Z,23.70
2018-05-27T07:56:08.116Z,23.39
2018-05-27T08:01:01.449Z,23.68
2018-05-27T08:05:54.774Z,24.22
2018-05-27T08:10:48.112Z,24.26
2018-05-27T08:15:42.175Z,24.29
2018-05-27T08:20:35.504Z,24.70
2018-05-27T08:25:29.607Z,24.82
2018-05-27T08:30:22.966Z,24.67
2018-05-27T08:35:16.296Z,25.02
2018-05-27T08:40:09.642Z,25.53
2018-05-27T08:45:02.974Z,25.61
2018-05-27T08:49:56.302Z,25.65
2018-05-27T08:54:49.609Z,25.78
2018-05-27T08:59:42.919Z,26.35
2018-05-27T09:04:36.254Z,26.49
2018-05-27T09:09:29.629Z,26.73
2018-05-27T09:14:23.891Z,27.26
2018-05-27T09:19:17.249Z,27.72
2018-05-27T09:24:10.579Z,27.44
2018-05-27T09:29:03.908Z,26.97
2018-05-27T09:33:57.231Z,26.70
2018-05-27T09:38:50.567Z,26.86
2018-05-27T09:43:51.646Z,26.96
2018-05-27T09:53:49.728Z,27.35
2018-05-27T09:58:43.048Z,27.39
2018-05-27T10:03:36.351Z,27.99
2018-05-27T10:08:29.671Z,28.40
2018-05-27T10:13:22.950Z,28.71
2018-05-27T10:18:16.279Z,29.01
2018-05-27T10:23:09.842Z,28.99
2018-05-27T10:28:03.162Z,28.74
2018-05-27T10:32:56.434Z,29.14
2018-05-27T10:37:49.764Z,29.02
2018-05-27T10:42:43.899Z,29.07
2018-05-27T10:47:37.199Z,28.95
2018-05-27T10:52:30.591Z,29.05
2018-05-27T10:57:23.919Z,28.71
2018-05-27T11:02:17.231Z,28.48
2018-05-27T11:07:50.446Z,28.40
2018-05-27T11:12:44.627Z,29.15
2018-05-27T11:17:37.965Z,29.21
2018-05-27T11:22:32.069Z,29.52
2018-05-27T11:27:25.433Z,29.84
2018-05-27T11:32:18.719Z,29.81
2018-05-27T11:37:12.055Z,30.10
2018-05-27T11:42:05.386Z,30.25
2018-05-27T11:46:58.691Z,30.50
2018-05-27T11:51:52.002Z,30.21
2018-05-27T11:56:45.349Z,30.63
2018-05-27T12:01:39.494Z,30.72
2018-05-27T12:06:32.794Z,30.85
2018-05-27T12:11:26.101Z,30.35
2018-05-27T12:16:19.503Z,30.02
2018-05-27T12:21:12.847Z,30.01
2018-05-27T12:26:06.195Z,30.15
2018-05-27T12:30:59.501Z,30.66
2018-05-27T12:35:52.825Z,30.19
2018-05-27T12:40:46.947Z,29.97
2018-05-27T12:45:40.403Z,30.03
2018-05-27T12:50:34.523Z,29.38
2018-05-27T12:55:27.885Z,28.72
2018-05-27T13:00:21.974Z,28.72
2018-05-27T13:05:15.390Z,29.09
2018-05-27T13:10:08.723Z,29.77
2018-05-27T13:15:02.162Z,30.13
2018-05-27T13:19:55.478Z,30.36
2018-05-27T13:24:48.829Z,30.30
2018-05-27T13:29:42.170Z,29.92
2018-05-27T13:34:35.519Z,30.46
2018-05-27T13:39:28.819Z,30.46
2018-05-27T13:44:22.161Z,30.18
2018-05-27T13:49:16.287Z,30.10
2018-05-27T13:54:09.564Z,30.35
2018-05-27T13:59:02.902Z,30.22
2018-05-27T14:03:56.200Z,30.13
2018-05-27T14:08:49.522Z,30.33
2018-05-27T14:13:42.870Z,30.03
2018-05-27T14:18:36.964Z,29.83
2018-05-27T14:23:30.298Z,29.63
2018-05-27T14:28:23.632Z,29.37
2018-05-27T14:33:17.761Z,29.17
2018-05-27T14:38:11.079Z,29.29
2018-05-27T14:43:04.441Z,29.34
2018-05-27T14:47:57.762Z,29.40
2018-05-27T14:52:51.196Z,29.65
2018-05-27T14:57:45.271Z,29.24
2018-05-27T15:02:38.634Z,29.38
2018-05-27T15:07:32.009Z,29.16
2018-05-27T15:12:25.332Z,29.26
2018-05-27T15:17:18.713Z,28.94
2018-05-27T15:22:12.055Z,28.73
2018-05-27T15:27:05.438Z,28.04
2018-05-27T15:31:58.755Z,28.12
2018-05-27T15:36:52.076Z,28.27
2018-05-27T15:41:45.408Z,28.44
2018-05-27T15:46:38.718Z,28.46
2018-05-27T15:51:32.805Z,28.47
2018-05-27T15:56:26.131Z,28.54
2018-05-27T16:01:19.440Z,28.42
2018-05-27T16:06:12.796Z,28.18
2018-05-27T16:11:08.260Z,28.02
2018-05-27T16:16:02.326Z,28.08
2018-05-27T16:20:55.651Z,28.02
2018-05-27T16:25:48.957Z,28.07
2018-05-27T16:30:42.276Z,28.05
2018-05-27T16:35:36.336Z,27.97
2018-05-27T16:40:29.640Z,27.86
2018-05-27T16:45:23.748Z,27.74
2018-05-27T16:50:17.046Z,27.75
2018-05-27T16:55:10.344Z,27.76
2018-05-27T17:00:03.752Z,27.60
2018-05-27T17:04:57.096Z,27.53
2018-05-27T17:09:50.526Z,27.25
2018-05-27T17:14:43.858Z,27.18
2018-05-27T17:19:37.164Z,27.15
2018-05-27T17:24:30.437Z,27.06
2018-05-27T17:29:23.724Z,27.04
2018-05-27T17:34:17.044Z,27.13
2018-05-27T17:39:11.167Z,27.11
2018-05-27T17:44:04.543Z,26.97
2018-05-27T17:48:57.887Z,26.87
2018-05-27T17:53:51.972Z,26.88
2018-05-27T17:58:46.083Z,26.82
2018-05-27T18:03:41.161Z,26.63
2018-05-27T18:08:34.463Z,26.51
2018-05-27T18:13:28.552Z,26.46
2018-05-27T18:18:22.629Z,26.22
2018-05-27T18:23:16.050Z,25.90
2018-05-27T18:28:09.359Z,25.73
2018-05-27T18:33:02.689Z,25.49
2018-05-27T18:37:56.765Z,25.42
2018-05-27T18:42:50.066Z,25.23
2018-05-27T18:47:43.395Z,25.05
2018-05-27T18:52:36.711Z,25.05
2018-05-27T18:57:30.768Z,24.88
2018-05-27T19:02:24.092Z,24.76
2018-05-27T19:07:21.460Z,24.42
2018-05-27T19:12:15.542Z,24.30
2018-05-27T19:17:08.852Z,24.25
2018-05-27T19:22:02.174Z,24.22
2018-05-27T19:26:55.575Z,24.13
2018-05-27T19:31:54.651Z,24.00
2018-05-27T19:36:48.398Z,24.10
2018-05-27T19:41:42.469Z,23.83
2018-05-27T19:46:35.891Z,23.73
2018-05-27T19:51:29.207Z,23.69
2018-05-27T19:56:22.528Z,23.72
2018-05-27T20:01:15.824Z,23.57
2018-05-27T20:06:09.152Z,23.57
2018-05-27T20:11:02.591Z,23.52
2018-05-27T20:15:55.913Z,23.41
2018-05-27T20:20:49.249Z,23.23
2018-05-27T20:25:42.571Z,23.17
2018-05-27T20:30:35.874Z,23.07
2018-05-27T20:35:30.081Z,23.00
2018-05-27T20:40:23.379Z,23.04
2018-05-27T20:45:16.867Z,23.11
2018-05-27T20:50:11.420Z,23.07
2018-05-27T20:55:04.740Z,22.92
2018-05-27T20:59:58.079Z,22.85
2018-05-27T21:04:51.502Z,22.75
2018-05-27T21:09:44.837Z,22.60
2018-05-27T21:14:38.956Z,22.53
2018-05-27T21:19:32.281Z,22.56
2018-05-27T21:24:25.621Z,22.50
2018-05-27T21:29:18.951Z,22.32
2018-05-27T21:34:12.259Z,22.26
2018-05-27T21:39:06.475Z,22.17
2018-05-27T21:43:59.772Z,22.03
2018-05-27T21:48:53.075Z,22.09
2018-05-27T21:53:46.406Z,22.10
2018-05-27T21:58:40.581Z,22.12
2018-05-27T22:03:33.845Z,22.07
2018-05-27T22:08:27.919Z,21.70
2018-05-27T22:13:21.241Z,21.58
2018-05-27T22:18:14.620Z,21.70
2018-05-27T22:23:07.922Z,22.00
2018-05-27T22:28:01.321Z,21.58
2018-05-27T22:32:54.644Z,21.58
2018-05-27T22:37:48.731Z,21.49
2018-05-27T22:42:42.801Z,21.38
2018-05-27T22:47:36.111Z,21.48
2018-05-27T22:52:29.433Z,21.35
2018-05-27T22:57:22.748Z,21.02
2018-05-27T23:02:16.054Z,20.96
2018-05-27T23:07:10.134Z,21.18
2018-05-27T23:12:04.224Z,21.37
2018-05-27T23:16:58.321Z,21.16
2018-05-27T23:21:52.412Z,21.24
2018-05-27T23:26:46.491Z,21.18
2018-05-27T23:31:39.825Z,20.93
2018-05-27T23:36:33.159Z,20.77
2018-05-27T23:41:26.491Z,20.81
2018-05-27T23:46:20.536Z,20.79
2018-05-27T23:51:14.635Z,20.85
2018-05-27T23:56:08.701Z,20.84
